Shagang Hongfa — 9V9138 — position and weather

sailwx.info

Track history (hours):
 
Tides and Currents Weather Stations Pressure Air Temp Water Temp Dewpoint Dewpoint Depression Visibility Wind Speed Wind Dir Waves Ship Positions

Shagang Hongfa

Last reported at 2017-Jun-22 01:19 UTC. Time now 2017-Jun-29 07:34 UTC.
Position N 36°40' E 123°17'.

Length 292 m; draft 9.7 m.

Type: Cargo ship. MMSI: 566178000.

Date/timePositionNaut miles runAvg speedWind from/ knotsBaromVisibWave heightAir tempDewpointWater temp
2017-Jun-22 01:19N 36°40' E 123°17'1110.8
2017-Jun-22 00:20N 36°51' E 123°17'515.1
2017-Jun-22 00:00N 36°56' E 123°17'2212.4
2017-Jun-21 22:16N 37°17' E 123°16'311.9
2017-Jun-21 22:00N 37°20' E 123°16'611.5
2017-Jun-21 21:30N 37°26' E 123°16'3011.4
2017-Jun-21 18:54N 37°42' E 122°44'712.0
2017-Jun-21 18:19N 37°45' E 122°36'412.3
2017-Jun-21 18:00N 37°47' E 122°32'612.5
2017-Jun-21 17:30N 37°50' E 122°25'612.8
2017-Jun-21 17:00N 37°54' E 122°18'713.0
2017-Jun-21 16:30N 37°57' E 122°11'712.9
2017-Jun-21 15:59N 38°01' E 122°04'613.0
2017-Jun-21 15:30N 38°04' E 121°57'612.9
2017-Jun-21 15:00N 38°07' E 121°50'612.7
2017-Jun-21 14:30N 38°10' E 121°43'1312.6
2017-Jun-21 13:30N 38°17' E 121°30'612.3
2017-Jun-21 13:00N 38°20' E 121°23'611.9
2017-Jun-21 12:30N 38°23' E 121°16'611.9
2017-Jun-21 12:00N 38°26' E 121°10'612.1
2017-Jun-21 11:30N 38°29' E 121°03'612.2
2017-Jun-21 11:00N 38°32' E 120°56'612.2
2017-Jun-21 10:30N 38°34' E 120°49'612.6
2017-Jun-21 10:00N 38°35' E 120°41'612.8
2017-Jun-21 09:30N 38°36' E 120°33'612.5
2017-Jun-21 09:00N 38°37' E 120°25'5 9.9
2017-Jun-21 08:30N 38°38' E 120°19'5 9.4
2017-Jun-21 08:00N 38°38' E 120°13'5 9.5
2017-Jun-21 07:30N 38°39' E 120°07'5 9.3
2017-Jun-21 07:00N 38°39' E 120°01'5 9.3
2017-Jun-21 06:30N 38°40' E 119°55'4 8.9
2017-Jun-21 06:00N 38°40' E 119°49'4 8.9
2017-Jun-21 05:30N 38°41' E 119°43'4 8.8
2017-Jun-21 05:01N 38°41' E 119°38'4 8.5
2017-Jun-21 04:30N 38°42' E 119°32'4 8.4
2017-Jun-21 04:00N 38°43' E 119°27'4 8.4
2017-Jun-21 03:30N 38°43' E 119°22'4 8.2
2017-Jun-21 03:00N 38°44' E 119°17'4 8.4
2017-Jun-21 02:30N 38°44' E 119°11'4 8.2
2017-Jun-21 02:00N 38°45' E 119°06'4 8.1
2017-Jun-21 01:30N 38°45' E 119°01'4 7.9
2017-Jun-21 01:00N 38°46' E 118°56'5 8.2
2017-Jun-21 00:21N 38°47' E 118°49'3 8.5
2017-Jun-21 00:00N 38°47' E 118°45'4 8.6
2017-Jun-20 23:30N 38°48' E 118°40'5 9.1
2017-Jun-20 23:00N 38°48' E 118°34'5 9.3
2017-Jun-20 22:29N 38°53' E 118°31'2 3.7
2017-Jun-20 21:55N 38°55' E 118°31'0 0.0
2017-Jun-20 17:01N 38°55' E 118°31'0 0.9
2017-Jun-20 16:58N 38°55' E 118°31'0 0.0
2017-Jun-20 16:28N 38°55' E 118°31'0 0.0
2017-Jun-20 15:58N 38°55' E 118°31'0 0.0
2017-Jun-20 15:28N 38°55' E 118°31'0 0.1
2017-Jun-20 14:55N 38°55' E 118°31'0 0.0
2017-Jun-20 14:22N 38°55' E 118°31'0 0.0
2017-Jun-20 13:25N 38°55' E 118°31'0 0.0
2017-Jun-20 11:58N 38°55' E 118°31'0 0.0
2017-Jun-20 11:19N 38°55' E 118°31'0 0.1
2017-Jun-20 10:58N 38°55' E 118°31'0 0.0
2017-Jun-20 10:28N 38°55' E 118°31'0 0.0
2017-Jun-20 09:58N 38°55' E 118°31'0 0.1
2017-Jun-20 09:22N 38°55' E 118°31'0 0.0
2017-Jun-20 08:58N 38°55' E 118°31'0 0.0
2017-Jun-18 23:49N 38°55' E 118°31'9 0.4
2017-Jun-17 23:53N 38°52' E 118°42'0 0.0
2017-Jun-17 23:17N 38°52' E 118°42'57 1.6
2017-Jun-16 10:30N 38°44' E 119°54'611.3
2017-Jun-16 10:00N 38°43' E 120°01'611.5
2017-Jun-16 09:30N 38°43' E 120°09'611.6
2017-Jun-16 09:00N 38°42' E 120°16'811.7
2017-Jun-16 08:19N 38°41' E 120°26'411.5
2017-Jun-16 08:00N 38°40' E 120°31'3111.4
2017-Jun-16 05:15N 38°30' E 121°09'710.9
2017-Jun-16 04:36N 38°26' E 121°17'110.6
2017-Jun-16 04:30N 38°26' E 121°18'510.7
2017-Jun-16 04:00N 38°23' E 121°24'510.5
2017-Jun-16 03:28N 38°21' E 121°30'510.3
2017-Jun-16 02:58N 38°18' E 121°36'2910.1
2017-Jun-16 00:09N 38°03' E 122°07'310.3
2017-Jun-15 23:53N 38°02' E 122°10'910.1
2017-Jun-15 22:59N 37°58' E 122°20'7 9.8
2017-Jun-15 22:15N 37°54' E 122°28'3 9.7
2017-Jun-15 21:59N 37°53' E 122°31'  
Track history (hours):
 
Tides and Currents Weather Stations Pressure Air Temp Water Temp Dewpoint Dewpoint Depression Visibility Wind Speed Wind Dir Waves Ship Positions

Shagang Hongfa

Last reported at 2017-Jun-22 01:19 UTC. Time now 2017-Jun-29 07:34 UTC.
Position N 36°40' E 123°17'.

Length 292 m; draft 9.7 m.

Type: Cargo ship. MMSI: 566178000.

Date/timePositionNaut miles runAvg speedWind from/ knotsBaromVisibWave heightAir tempDewpointWater temp
2017-Jun-22 01:19N 36°40' E 123°17'1110.8
2017-Jun-22 00:20N 36°51' E 123°17'515.1
2017-Jun-22 00:00N 36°56' E 123°17'2212.4
2017-Jun-21 22:16N 37°17' E 123°16'311.9
2017-Jun-21 22:00N 37°20' E 123°16'611.5
2017-Jun-21 21:30N 37°26' E 123°16'3011.4
2017-Jun-21 18:54N 37°42' E 122°44'712.0
2017-Jun-21 18:19N 37°45' E 122°36'412.3
2017-Jun-21 18:00N 37°47' E 122°32'612.5
2017-Jun-21 17:30N 37°50' E 122°25'612.8
2017-Jun-21 17:00N 37°54' E 122°18'713.0
2017-Jun-21 16:30N 37°57' E 122°11'712.9
2017-Jun-21 15:59N 38°01' E 122°04'613.0
2017-Jun-21 15:30N 38°04' E 121°57'612.9
2017-Jun-21 15:00N 38°07' E 121°50'612.7
2017-Jun-21 14:30N 38°10' E 121°43'1312.6
2017-Jun-21 13:30N 38°17' E 121°30'612.3
2017-Jun-21 13:00N 38°20' E 121°23'611.9
2017-Jun-21 12:30N 38°23' E 121°16'611.9
2017-Jun-21 12:00N 38°26' E 121°10'612.1
2017-Jun-21 11:30N 38°29' E 121°03'612.2
2017-Jun-21 11:00N 38°32' E 120°56'612.2
2017-Jun-21 10:30N 38°34' E 120°49'612.6
2017-Jun-21 10:00N 38°35' E 120°41'612.8
2017-Jun-21 09:30N 38°36' E 120°33'612.5
2017-Jun-21 09:00N 38°37' E 120°25'5 9.9
2017-Jun-21 08:30N 38°38' E 120°19'5 9.4
2017-Jun-21 08:00N 38°38' E 120°13'5 9.5
2017-Jun-21 07:30N 38°39' E 120°07'5 9.3
2017-Jun-21 07:00N 38°39' E 120°01'5 9.3
2017-Jun-21 06:30N 38°40' E 119°55'4 8.9
2017-Jun-21 06:00N 38°40' E 119°49'4 8.9
2017-Jun-21 05:30N 38°41' E 119°43'4 8.8
2017-Jun-21 05:01N 38°41' E 119°38'4 8.5
2017-Jun-21 04:30N 38°42' E 119°32'4 8.4
2017-Jun-21 04:00N 38°43' E 119°27'4 8.4
2017-Jun-21 03:30N 38°43' E 119°22'4 8.2
2017-Jun-21 03:00N 38°44' E 119°17'4 8.4
2017-Jun-21 02:30N 38°44' E 119°11'4 8.2
2017-Jun-21 02:00N 38°45' E 119°06'4 8.1
2017-Jun-21 01:30N 38°45' E 119°01'4 7.9
2017-Jun-21 01:00N 38°46' E 118°56'5 8.2
2017-Jun-21 00:21N 38°47' E 118°49'3 8.5
2017-Jun-21 00:00N 38°47' E 118°45'4 8.6
2017-Jun-20 23:30N 38°48' E 118°40'5 9.1
2017-Jun-20 23:00N 38°48' E 118°34'5 9.3
2017-Jun-20 22:29N 38°53' E 118°31'2 3.7
2017-Jun-20 21:55N 38°55' E 118°31'0 0.0
2017-Jun-20 17:01N 38°55' E 118°31'0 0.9
2017-Jun-20 16:58N 38°55' E 118°31'0 0.0
2017-Jun-20 16:28N 38°55' E 118°31'0 0.0
2017-Jun-20 15:58N 38°55' E 118°31'0 0.0
2017-Jun-20 15:28N 38°55' E 118°31'0 0.1
2017-Jun-20 14:55N 38°55' E 118°31'0 0.0
2017-Jun-20 14:22N 38°55' E 118°31'0 0.0
2017-Jun-20 13:25N 38°55' E 118°31'0 0.0
2017-Jun-20 11:58N 38°55' E 118°31'0 0.0
2017-Jun-20 11:19N 38°55' E 118°31'0 0.1
2017-Jun-20 10:58N 38°55' E 118°31'0 0.0
2017-Jun-20 10:28N 38°55' E 118°31'0 0.0
2017-Jun-20 09:58N 38°55' E 118°31'0 0.1
2017-Jun-20 09:22N 38°55' E 118°31'0 0.0
2017-Jun-20 08:58N 38°55' E 118°31'0 0.0
2017-Jun-18 23:49N 38°55' E 118°31'9 0.4
2017-Jun-17 23:53N 38°52' E 118°42'0 0.0
2017-Jun-17 23:17N 38°52' E 118°42'57 1.6
2017-Jun-16 10:30N 38°44' E 119°54'611.3
2017-Jun-16 10:00N 38°43' E 120°01'611.5
2017-Jun-16 09:30N 38°43' E 120°09'611.6
2017-Jun-16 09:00N 38°42' E 120°16'811.7
2017-Jun-16 08:19N 38°41' E 120°26'411.5
2017-Jun-16 08:00N 38°40' E 120°31'3111.4
2017-Jun-16 05:15N 38°30' E 121°09'710.9
2017-Jun-16 04:36N 38°26' E 121°17'110.6
2017-Jun-16 04:30N 38°26' E 121°18'510.7
2017-Jun-16 04:00N 38°23' E 121°24'510.5
2017-Jun-16 03:28N 38°21' E 121°30'510.3
2017-Jun-16 02:58N 38°18' E 121°36'2910.1
2017-Jun-16 00:09N 38°03' E 122°07'310.3
2017-Jun-15 23:53N 38°02' E 122°10'910.1
2017-Jun-15 22:59N 37°58' E 122°20'7 9.8
2017-Jun-15 22:15N 37°54' E 122°28'3 9.7
2017-Jun-15 21:59N 37°53' E 122°31'  

Dump ship's entire track history